sensor_id;sensor_type;location;lat;lon;timestamp;P1;durP1;ratioP1;P2;durP2;ratioP2
76423;SDS011;65257;52.104;4.268;2023-03-19T00:00:41;15.32;;;9.60;;
76423;SDS011;65257;52.104;4.268;2023-03-19T00:03:10;20.90;;;10.77;;
76423;SDS011;65257;52.104;4.268;2023-03-19T00:05:35;18.88;;;10.93;;
76423;SDS011;65257;52.104;4.268;2023-03-19T00:08:02;15.93;;;10.00;;
76423;SDS011;65257;52.104;4.268;2023-03-19T00:10:27;16.95;;;9.95;;
76423;SDS011;65257;52.104;4.268;2023-03-19T00:12:52;19.15;;;11.13;;
76423;SDS011;65257;52.104;4.268;2023-03-19T00:15:18;19.95;;;11.35;;
76423;SDS011;65257;52.104;4.268;2023-03-19T00:17:43;23.38;;;10.95;;
76423;SDS011;65257;52.104;4.268;2023-03-19T00:20:09;18.25;;;10.48;;
76423;SDS011;65257;52.104;4.268;2023-03-19T00:22:36;21.40;;;12.60;;
76423;SDS011;65257;52.104;4.268;2023-03-19T00:25:06;22.02;;;13.25;;
76423;SDS011;65257;52.104;4.268;2023-03-19T00:27:36;19.60;;;10.65;;
76423;SDS011;65257;52.104;4.268;2023-03-19T00:30:02;19.92;;;11.38;;
76423;SDS011;65257;52.104;4.268;2023-03-19T00:35:15;20.23;;;11.70;;
76423;SDS011;65257;52.104;4.268;2023-03-19T00:37:49;24.13;;;11.98;;
76423;SDS011;65257;52.104;4.268;2023-03-19T00:40:18;21.27;;;11.95;;
76423;SDS011;65257;52.104;4.268;2023-03-19T00:42:46;20.10;;;10.50;;
76423;SDS011;65257;52.104;4.268;2023-03-19T00:45:13;19.45;;;10.15;;
76423;SDS011;65257;52.104;4.268;2023-03-19T00:47:38;16.50;;;10.15;;
76423;SDS011;65257;52.104;4.268;2023-03-19T00:50:04;18.60;;;9.82;;
76423;SDS011;65257;52.104;4.268;2023-03-19T00:52:30;21.27;;;10.05;;
76423;SDS011;65257;52.104;4.268;2023-03-19T00:54:55;17.65;;;9.32;;
76423;SDS011;65257;52.104;4.268;2023-03-19T00:57:21;20.48;;;9.85;;
76423;SDS011;65257;52.104;4.268;2023-03-19T00:59:47;17.30;;;8.77;;
76423;SDS011;65257;52.104;4.268;2023-03-19T01:02:20;19.02;;;9.82;;
76423;SDS011;65257;52.104;4.268;2023-03-19T01:04:49;16.13;;;7.88;;
76423;SDS011;65257;52.104;4.268;2023-03-19T01:07:15;17.65;;;8.93;;
76423;SDS011;65257;52.104;4.268;2023-03-19T01:09:40;17.63;;;7.32;;
76423;SDS011;65257;52.104;4.268;2023-03-19T01:12:09;16.35;;;8.32;;
76423;SDS011;65257;52.104;4.268;2023-03-19T01:14:35;16.02;;;8.48;;
76423;SDS011;65257;52.104;4.268;2023-03-19T01:17:00;15.73;;;8.20;;
76423;SDS011;65257;52.104;4.268;2023-03-19T01:19:26;17.30;;;7.38;;
76423;SDS011;65257;52.104;4.268;2023-03-19T01:21:55;13.40;;;6.97;;
76423;SDS011;65257;52.104;4.268;2023-03-19T01:24:32;16.25;;;7.78;;
76423;SDS011;65257;52.104;4.268;2023-03-19T01:26:57;16.30;;;7.32;;
76423;SDS011;65257;52.104;4.268;2023-03-19T01:29:22;17.73;;;7.00;;
76423;SDS011;65257;52.104;4.268;2023-03-19T01:31:51;13.73;;;7.53;;
76423;SDS011;65257;52.104;4.268;2023-03-19T01:34:17;17.63;;;7.03;;
76423;SDS011;65257;52.104;4.268;2023-03-19T01:36:42;19.50;;;8.60;;
76423;SDS011;65257;52.104;4.268;2023-03-19T01:39:08;18.67;;;8.27;;
76423;SDS011;65257;52.104;4.268;2023-03-19T01:41:34;15.85;;;7.38;;
76423;SDS011;65257;52.104;4.268;2023-03-19T01:43:59;17.77;;;7.18;;
76423;SDS011;65257;52.104;4.268;2023-03-19T01:46:32;19.25;;;7.63;;
76423;SDS011;65257;52.104;4.268;2023-03-19T01:49:02;17.88;;;7.35;;
76423;SDS011;65257;52.104;4.268;2023-03-19T01:51:35;15.98;;;7.88;;
76423;SDS011;65257;52.104;4.268;2023-03-19T01:54:09;17.60;;;7.53;;
76423;SDS011;65257;52.104;4.268;2023-03-19T01:56:38;21.48;;;7.72;;
76423;SDS011;65257;52.104;4.268;2023-03-19T01:59:07;17.25;;;7.60;;
76423;SDS011;65257;52.104;4.268;2023-03-19T02:01:39;21.35;;;9.07;;
76423;SDS011;65257;52.104;4.268;2023-03-19T02:04:11;21.45;;;9.93;;
76423;SDS011;65257;52.104;4.268;2023-03-19T02:06:41;21.35;;;9.93;;
76423;SDS011;65257;52.104;4.268;2023-03-19T02:09:12;20.17;;;9.10;;
76423;SDS011;65257;52.104;4.268;2023-03-19T02:11:40;23.23;;;10.40;;
76423;SDS011;65257;52.104;4.268;2023-03-19T02:14:09;20.60;;;9.52;;
76423;SDS011;65257;52.104;4.268;2023-03-19T02:16:37;19.00;;;8.05;;
76423;SDS011;65257;52.104;4.268;2023-03-19T02:19:03;22.95;;;10.50;;
76423;SDS011;65257;52.104;4.268;2023-03-19T02:21:36;26.95;;;11.43;;
76423;SDS011;65257;52.104;4.268;2023-03-19T02:24:22;29.90;;;13.13;;
76423;SDS011;65257;52.104;4.268;2023-03-19T02:27:01;29.90;;;13.70;;
76423;SDS011;65257;52.104;4.268;2023-03-19T02:29:29;31.58;;;15.77;;
76423;SDS011;65257;52.104;4.268;2023-03-19T02:31:55;35.55;;;15.48;;
76423;SDS011;65257;52.104;4.268;2023-03-19T02:36:48;33.00;;;15.18;;
76423;SDS011;65257;52.104;4.268;2023-03-19T02:41:59;39.72;;;16.85;;
76423;SDS011;65257;52.104;4.268;2023-03-19T02:44:25;34.08;;;15.55;;
76423;SDS011;65257;52.104;4.268;2023-03-19T02:46:57;37.58;;;15.43;;
76423;SDS011;65257;52.104;4.268;2023-03-19T02:49:23;27.77;;;11.77;;
76423;SDS011;65257;52.104;4.268;2023-03-19T02:51:49;33.83;;;15.43;;
76423;SDS011;65257;52.104;4.268;2023-03-19T02:54:15;29.10;;;11.98;;
76423;SDS011;65257;52.104;4.268;2023-03-19T02:56:45;33.72;;;13.57;;
76423;SDS011;65257;52.104;4.268;2023-03-19T02:59:15;31.40;;;13.70;;
76423;SDS011;65257;52.104;4.268;2023-03-19T03:01:47;30.55;;;13.35;;
76423;SDS011;65257;52.104;4.268;2023-03-19T03:04:12;33.40;;;13.35;;
76423;SDS011;65257;52.104;4.268;2023-03-19T03:06:42;31.35;;;13.57;;
76423;SDS011;65257;52.104;4.268;2023-03-19T03:09:11;32.67;;;14.63;;
76423;SDS011;65257;52.104;4.268;2023-03-19T03:11:37;32.58;;;14.02;;
76423;SDS011;65257;52.104;4.268;2023-03-19T03:14:06;34.13;;;15.38;;
76423;SDS011;65257;52.104;4.268;2023-03-19T03:16:32;36.70;;;15.18;;
76423;SDS011;65257;52.104;4.268;2023-03-19T03:18:57;31.95;;;14.70;;
76423;SDS011;65257;52.104;4.268;2023-03-19T03:21:23;31.23;;;14.23;;
76423;SDS011;65257;52.104;4.268;2023-03-19T03:23:49;28.73;;;13.38;;
76423;SDS011;65257;52.104;4.268;2023-03-19T03:26:16;31.73;;;13.82;;
76423;SDS011;65257;52.104;4.268;2023-03-19T03:28:42;26.88;;;12.98;;
76423;SDS011;65257;52.104;4.268;2023-03-19T03:31:07;26.63;;;12.38;;
76423;SDS011;65257;52.104;4.268;2023-03-19T03:33:33;30.63;;;13.68;;
76423;SDS011;65257;52.104;4.268;2023-03-19T03:35:59;35.83;;;15.00;;
76423;SDS011;65257;52.104;4.268;2023-03-19T03:38:25;33.50;;;14.63;;
76423;SDS011;65257;52.104;4.268;2023-03-19T03:40:51;29.33;;;12.55;;
76423;SDS011;65257;52.104;4.268;2023-03-19T03:43:16;34.55;;;15.52;;
76423;SDS011;65257;52.104;4.268;2023-03-19T03:45:44;38.83;;;15.68;;
76423;SDS011;65257;52.104;4.268;2023-03-19T03:48:09;32.10;;;14.02;;
76423;SDS011;65257;52.104;4.268;2023-03-19T03:50:36;36.30;;;14.18;;
76423;SDS011;65257;52.104;4.268;2023-03-19T03:53:02;41.28;;;14.98;;
76423;SDS011;65257;52.104;4.268;2023-03-19T03:55:27;33.42;;;13.68;;
76423;SDS011;65257;52.104;4.268;2023-03-19T03:57:53;32.80;;;12.23;;
76423;SDS011;65257;52.104;4.268;2023-03-19T04:00:21;34.97;;;12.63;;
76423;SDS011;65257;52.104;4.268;2023-03-19T04:02:48;39.05;;;10.68;;
76423;SDS011;65257;52.104;4.268;2023-03-19T04:05:14;33.53;;;10.45;;
76423;SDS011;65257;52.104;4.268;2023-03-19T04:07:46;35.65;;;11.50;;
76423;SDS011;65257;52.104;4.268;2023-03-19T04:10:15;42.30;;;13.60;;
76423;SDS011;65257;52.104;4.268;2023-03-19T04:12:49;35.00;;;11.90;;
76423;SDS011;65257;52.104;4.268;2023-03-19T04:15:15;43.97;;;13.35;;
76423;SDS011;65257;52.104;4.268;2023-03-19T04:17:41;44.08;;;12.35;;
76423;SDS011;65257;52.104;4.268;2023-03-19T04:20:07;46.78;;;14.30;;
76423;SDS011;65257;52.104;4.268;2023-03-19T04:22:35;43.85;;;13.63;;
76423;SDS011;65257;52.104;4.268;2023-03-19T04:25:00;49.45;;;16.13;;
76423;SDS011;65257;52.104;4.268;2023-03-19T04:27:26;48.17;;;14.32;;
76423;SDS011;65257;52.104;4.268;2023-03-19T04:29:55;47.67;;;16.05;;
76423;SDS011;65257;52.104;4.268;2023-03-19T04:32:20;43.63;;;15.70;;
76423;SDS011;65257;52.104;4.268;2023-03-19T04:34:45;46.05;;;16.00;;
76423;SDS011;65257;52.104;4.268;2023-03-19T04:37:12;43.00;;;16.00;;
76423;SDS011;65257;52.104;4.268;2023-03-19T04:39:37;45.40;;;14.77;;
76423;SDS011;65257;52.104;4.268;2023-03-19T04:42:04;48.05;;;16.02;;
76423;SDS011;65257;52.104;4.268;2023-03-19T04:44:30;53.47;;;15.50;;
76423;SDS011;65257;52.104;4.268;2023-03-19T04:46:56;40.88;;;13.48;;
76423;SDS011;65257;52.104;4.268;2023-03-19T04:49:41;39.22;;;11.68;;
76423;SDS011;65257;52.104;4.268;2023-03-19T04:52:09;48.67;;;12.20;;
76423;SDS011;65257;52.104;4.268;2023-03-19T04:54:35;40.70;;;11.07;;
76423;SDS011;65257;52.104;4.268;2023-03-19T04:57:03;42.05;;;11.15;;
76423;SDS011;65257;52.104;4.268;2023-03-19T04:59:32;38.85;;;12.32;;
76423;SDS011;65257;52.104;4.268;2023-03-19T05:01:57;37.42;;;10.60;;
76423;SDS011;65257;52.104;4.268;2023-03-19T05:04:29;42.00;;;11.65;;
76423;SDS011;65257;52.104;4.268;2023-03-19T05:06:54;32.33;;;8.98;;
76423;SDS011;65257;52.104;4.268;2023-03-19T05:09:28;39.00;;;11.30;;
76423;SDS011;65257;52.104;4.268;2023-03-19T05:11:55;39.28;;;10.45;;
76423;SDS011;65257;52.104;4.268;2023-03-19T05:14:22;30.83;;;9.55;;
76423;SDS011;65257;52.104;4.268;2023-03-19T05:16:51;40.38;;;11.23;;
76423;SDS011;65257;52.104;4.268;2023-03-19T05:19:17;38.80;;;10.93;;
76423;SDS011;65257;52.104;4.268;2023-03-19T05:21:42;38.63;;;11.10;;
76423;SDS011;65257;52.104;4.268;2023-03-19T05:24:08;40.58;;;12.27;;
76423;SDS011;65257;52.104;4.268;2023-03-19T05:26:41;46.10;;;13.55;;
76423;SDS011;65257;52.104;4.268;2023-03-19T05:29:06;36.28;;;12.63;;
76423;SDS011;65257;52.104;4.268;2023-03-19T05:31:42;47.60;;;13.38;;
76423;SDS011;65257;52.104;4.268;2023-03-19T05:34:07;39.28;;;12.95;;
76423;SDS011;65257;52.104;4.268;2023-03-19T05:36:33;51.50;;;13.88;;
76423;SDS011;65257;52.104;4.268;2023-03-19T05:39:09;45.42;;;14.60;;
76423;SDS011;65257;52.104;4.268;2023-03-19T05:41:40;43.78;;;15.48;;
76423;SDS011;65257;52.104;4.268;2023-03-19T05:44:06;48.83;;;13.90;;
76423;SDS011;65257;52.104;4.268;2023-03-19T05:46:34;40.60;;;14.00;;
76423;SDS011;65257;52.104;4.268;2023-03-19T05:49:00;45.30;;;16.02;;
76423;SDS011;65257;52.104;4.268;2023-03-19T05:51:25;47.15;;;15.98;;
76423;SDS011;65257;52.104;4.268;2023-03-19T05:53:51;48.67;;;14.45;;
76423;SDS011;65257;52.104;4.268;2023-03-19T05:56:17;48.72;;;16.60;;
76423;SDS011;65257;52.104;4.268;2023-03-19T05:58:42;44.50;;;15.43;;
76423;SDS011;65257;52.104;4.268;2023-03-19T06:01:10;45.85;;;15.63;;
76423;SDS011;65257;52.104;4.268;2023-03-19T06:03:37;44.17;;;14.77;;
76423;SDS011;65257;52.104;4.268;2023-03-19T06:06:02;45.38;;;17.30;;
76423;SDS011;65257;52.104;4.268;2023-03-19T06:08:32;48.90;;;17.02;;
76423;SDS011;65257;52.104;4.268;2023-03-19T06:10:58;53.95;;;18.45;;
76423;SDS011;65257;52.104;4.268;2023-03-19T06:13:24;53.67;;;15.60;;
76423;SDS011;65257;52.104;4.268;2023-03-19T06:15:52;40.95;;;14.13;;
76423;SDS011;65257;52.104;4.268;2023-03-19T06:18:18;50.35;;;19.35;;
76423;SDS011;65257;52.104;4.268;2023-03-19T06:20:47;49.15;;;16.83;;
76423;SDS011;65257;52.104;4.268;2023-03-19T06:23:13;41.80;;;15.38;;
76423;SDS011;65257;52.104;4.268;2023-03-19T06:26:06;38.80;;;15.13;;
76423;SDS011;65257;52.104;4.268;2023-03-19T06:28:31;43.20;;;16.88;;
76423;SDS011;65257;52.104;4.268;2023-03-19T06:31:06;43.42;;;15.50;;
76423;SDS011;65257;52.104;4.268;2023-03-19T06:33:35;45.25;;;16.33;;
76423;SDS011;65257;52.104;4.268;2023-03-19T06:36:01;48.28;;;18.00;;
76423;SDS011;65257;52.104;4.268;2023-03-19T06:38:30;38.28;;;15.55;;
76423;SDS011;65257;52.104;4.268;2023-03-19T06:40:55;56.50;;;19.20;;
76423;SDS011;65257;52.104;4.268;2023-03-19T06:43:21;53.65;;;17.35;;
76423;SDS011;65257;52.104;4.268;2023-03-19T06:45:47;52.78;;;19.73;;
76423;SDS011;65257;52.104;4.268;2023-03-19T06:48:28;51.45;;;15.88;;
76423;SDS011;65257;52.104;4.268;2023-03-19T06:50:54;55.00;;;18.05;;
76423;SDS011;65257;52.104;4.268;2023-03-19T06:53:19;61.60;;;17.85;;
76423;SDS011;65257;52.104;4.268;2023-03-19T06:55:48;67.38;;;19.52;;
76423;SDS011;65257;52.104;4.268;2023-03-19T06:58:13;59.25;;;17.55;;
76423;SDS011;65257;52.104;4.268;2023-03-19T07:00:38;60.58;;;18.95;;
76423;SDS011;65257;52.104;4.268;2023-03-19T07:03:07;50.95;;;16.58;;
76423;SDS011;65257;52.104;4.268;2023-03-19T07:05:39;57.53;;;17.60;;
76423;SDS011;65257;52.104;4.268;2023-03-19T07:08:04;51.97;;;16.35;;
76423;SDS011;65257;52.104;4.268;2023-03-19T07:10:38;60.67;;;16.50;;
76423;SDS011;65257;52.104;4.268;2023-03-19T07:13:04;52.35;;;17.13;;
76423;SDS011;65257;52.104;4.268;2023-03-19T07:15:31;50.10;;;15.15;;
76423;SDS011;65257;52.104;4.268;2023-03-19T07:18:01;59.78;;;18.10;;
76423;SDS011;65257;52.104;4.268;2023-03-19T07:20:38;71.22;;;17.35;;
76423;SDS011;65257;52.104;4.268;2023-03-19T07:23:07;62.28;;;16.80;;
76423;SDS011;65257;52.104;4.268;2023-03-19T07:25:32;59.53;;;17.25;;
76423;SDS011;65257;52.104;4.268;2023-03-19T07:27:58;54.20;;;16.73;;
76423;SDS011;65257;52.104;4.268;2023-03-19T07:30:23;48.97;;;17.08;;
76423;SDS011;65257;52.104;4.268;2023-03-19T07:32:49;69.35;;;18.00;;
76423;SDS011;65257;52.104;4.268;2023-03-19T07:35:17;54.10;;;17.35;;
76423;SDS011;65257;52.104;4.268;2023-03-19T07:37:42;55.92;;;18.05;;
76423;SDS011;65257;52.104;4.268;2023-03-19T07:40:08;56.75;;;18.17;;
76423;SDS011;65257;52.104;4.268;2023-03-19T07:42:35;58.95;;;17.92;;
76423;SDS011;65257;52.104;4.268;2023-03-19T07:45:01;55.53;;;16.48;;
76423;SDS011;65257;52.104;4.268;2023-03-19T07:47:39;52.28;;;17.02;;
76423;SDS011;65257;52.104;4.268;2023-03-19T07:50:04;54.00;;;17.98;;
76423;SDS011;65257;52.104;4.268;2023-03-19T07:52:35;50.90;;;17.17;;
76423;SDS011;65257;52.104;4.268;2023-03-19T07:55:03;54.38;;;16.15;;
76423;SDS011;65257;52.104;4.268;2023-03-19T07:57:30;54.17;;;17.60;;
76423;SDS011;65257;52.104;4.268;2023-03-19T07:59:57;54.10;;;17.52;;
76423;SDS011;65257;52.104;4.268;2023-03-19T08:02:23;53.42;;;16.52;;
76423;SDS011;65257;52.104;4.268;2023-03-19T08:04:49;48.60;;;16.25;;
76423;SDS011;65257;52.104;4.268;2023-03-19T08:07:14;40.03;;;13.00;;
76423;SDS011;65257;52.104;4.268;2023-03-19T08:09:40;45.17;;;15.43;;
76423;SDS011;65257;52.104;4.268;2023-03-19T08:12:06;52.28;;;15.88;;
76423;SDS011;65257;52.104;4.268;2023-03-19T08:14:37;54.22;;;15.98;;
76423;SDS011;65257;52.104;4.268;2023-03-19T08:17:02;56.38;;;16.83;;
76423;SDS011;65257;52.104;4.268;2023-03-19T08:19:28;44.78;;;15.55;;
76423;SDS011;65257;52.104;4.268;2023-03-19T08:21:56;44.38;;;15.77;;
76423;SDS011;65257;52.104;4.268;2023-03-19T08:24:25;44.58;;;16.98;;
76423;SDS011;65257;52.104;4.268;2023-03-19T08:26:55;43.70;;;16.90;;
76423;SDS011;65257;52.104;4.268;2023-03-19T08:29:23;39.80;;;14.18;;
76423;SDS011;65257;52.104;4.268;2023-03-19T08:31:55;44.33;;;14.40;;
76423;SDS011;65257;52.104;4.268;2023-03-19T08:34:24;53.75;;;15.95;;
76423;SDS011;65257;52.104;4.268;2023-03-19T08:36:49;48.90;;;15.85;;
76423;SDS011;65257;52.104;4.268;2023-03-19T08:39:21;50.33;;;15.40;;
76423;SDS011;65257;52.104;4.268;2023-03-19T08:41:46;46.03;;;14.35;;
76423;SDS011;65257;52.104;4.268;2023-03-19T08:44:12;47.05;;;15.68;;
76423;SDS011;65257;52.104;4.268;2023-03-19T08:46:38;44.20;;;14.65;;
76423;SDS011;65257;52.104;4.268;2023-03-19T08:49:06;48.95;;;14.13;;
76423;SDS011;65257;52.104;4.268;2023-03-19T08:51:35;47.35;;;15.55;;
76423;SDS011;65257;52.104;4.268;2023-03-19T08:54:04;48.17;;;15.23;;
76423;SDS011;65257;52.104;4.268;2023-03-19T08:56:30;50.55;;;15.60;;
76423;SDS011;65257;52.104;4.268;2023-03-19T08:58:56;47.72;;;14.73;;
76423;SDS011;65257;52.104;4.268;2023-03-19T09:01:24;49.58;;;13.93;;
76423;SDS011;65257;52.104;4.268;2023-03-19T09:03:50;43.47;;;15.32;;
76423;SDS011;65257;52.104;4.268;2023-03-19T09:06:16;49.33;;;15.00;;
76423;SDS011;65257;52.104;4.268;2023-03-19T09:08:43;53.38;;;17.30;;
76423;SDS011;65257;52.104;4.268;2023-03-19T09:11:11;57.55;;;15.32;;
76423;SDS011;65257;52.104;4.268;2023-03-19T09:13:46;52.47;;;16.40;;
76423;SDS011;65257;52.104;4.268;2023-03-19T09:16:12;54.72;;;16.42;;
76423;SDS011;65257;52.104;4.268;2023-03-19T09:18:40;55.47;;;16.08;;
76423;SDS011;65257;52.104;4.268;2023-03-19T09:21:09;56.75;;;17.92;;
76423;SDS011;65257;52.104;4.268;2023-03-19T09:23:35;57.03;;;16.55;;
76423;SDS011;65257;52.104;4.268;2023-03-19T09:26:00;56.95;;;16.92;;
76423;SDS011;65257;52.104;4.268;2023-03-19T09:28:26;54.50;;;17.25;;
76423;SDS011;65257;52.104;4.268;2023-03-19T09:30:51;61.92;;;18.77;;
76423;SDS011;65257;52.104;4.268;2023-03-19T09:33:20;54.63;;;16.08;;
76423;SDS011;65257;52.104;4.268;2023-03-19T09:35:49;68.68;;;17.90;;
76423;SDS011;65257;52.104;4.268;2023-03-19T09:38:16;60.78;;;16.90;;
76423;SDS011;65257;52.104;4.268;2023-03-19T09:40:45;67.07;;;18.98;;
76423;SDS011;65257;52.104;4.268;2023-03-19T09:43:32;63.83;;;17.38;;
76423;SDS011;65257;52.104;4.268;2023-03-19T09:46:00;51.45;;;16.48;;
76423;SDS011;65257;52.104;4.268;2023-03-19T09:48:35;51.58;;;16.23;;
76423;SDS011;65257;52.104;4.268;2023-03-19T09:51:27;60.15;;;17.73;;
76423;SDS011;65257;52.104;4.268;2023-03-19T09:54:03;50.95;;;15.93;;
76423;SDS011;65257;52.104;4.268;2023-03-19T09:56:36;50.45;;;14.48;;
76423;SDS011;65257;52.104;4.268;2023-03-19T09:59:06;44.78;;;14.40;;
76423;SDS011;65257;52.104;4.268;2023-03-19T10:01:34;43.13;;;15.95;;
76423;SDS011;65257;52.104;4.268;2023-03-19T10:12:48;44.28;;;13.63;;
76423;SDS011;65257;52.104;4.268;2023-03-19T10:15:40;41.45;;;13.27;;
76423;SDS011;65257;52.104;4.268;2023-03-19T10:23:52;37.20;;;13.45;;
76423;SDS011;65257;52.104;4.268;2023-03-19T10:26:20;38.40;;;15.18;;
76423;SDS011;65257;52.104;4.268;2023-03-19T10:36:57;39.70;;;13.63;;
76423;SDS011;65257;52.104;4.268;2023-03-19T10:39:24;44.78;;;13.25;;
76423;SDS011;65257;52.104;4.268;2023-03-19T10:45:29;44.33;;;13.48;;
76423;SDS011;65257;52.104;4.268;2023-03-19T10:47:47;41.08;;;12.30;;
76423;SDS011;65257;52.104;4.268;2023-03-19T10:50:20;37.45;;;10.65;;
76423;SDS011;65257;52.104;4.268;2023-03-19T10:52:58;29.08;;;8.20;;
76423;SDS011;65257;52.104;4.268;2023-03-19T10:56:01;41.22;;;10.75;;
76423;SDS011;65257;52.104;4.268;2023-03-19T10:59:06;36.53;;;12.18;;
76423;SDS011;65257;52.104;4.268;2023-03-19T11:02:02;35.10;;;10.30;;
76423;SDS011;65257;52.104;4.268;2023-03-19T11:04:40;28.30;;;10.75;;
76423;SDS011;65257;52.104;4.268;2023-03-19T11:07:13;41.55;;;12.68;;
76423;SDS011;65257;52.104;4.268;2023-03-19T11:09:49;35.30;;;13.25;;
76423;SDS011;65257;52.104;4.268;2023-03-19T11:12:20;41.05;;;12.60;;
76423;SDS011;65257;52.104;4.268;2023-03-19T11:14:52;41.47;;;12.98;;
76423;SDS011;65257;52.104;4.268;2023-03-19T11:17:39;45.38;;;13.68;;
76423;SDS011;65257;52.104;4.268;2023-03-19T11:20:29;45.17;;;14.52;;
76423;SDS011;65257;52.104;4.268;2023-03-19T11:23:06;47.40;;;13.68;;
76423;SDS011;65257;52.104;4.268;2023-03-19T11:28:15;48.97;;;15.07;;
76423;SDS011;65257;52.104;4.268;2023-03-19T11:39:26;44.38;;;14.23;;
76423;SDS011;65257;52.104;4.268;2023-03-19T11:48:25;47.28;;;15.20;;
76423;SDS011;65257;52.104;4.268;2023-03-19T11:51:04;52.38;;;14.13;;
76423;SDS011;65257;52.104;4.268;2023-03-19T11:56:53;54.63;;;13.10;;
76423;SDS011;65257;52.104;4.268;2023-03-19T12:21:49;52.70;;;11.95;;
76423;SDS011;65257;52.104;4.268;2023-03-19T12:27:57;52.22;;;11.45;;
76423;SDS011;65257;52.104;4.268;2023-03-19T12:36:43;36.63;;;10.20;;
76423;SDS011;65257;52.104;4.268;2023-03-19T12:39:33;45.28;;;10.65;;
76423;SDS011;65257;52.104;4.268;2023-03-19T12:42:03;43.70;;;11.80;;
76423;SDS011;65257;52.104;4.268;2023-03-19T12:44:33;32.00;;;11.13;;
76423;SDS011;65257;52.104;4.268;2023-03-19T12:49:46;37.03;;;13.00;;
76423;SDS011;65257;52.104;4.268;2023-03-19T12:52:27;32.55;;;10.15;;
76423;SDS011;65257;52.104;4.268;2023-03-19T12:55:07;46.58;;;12.75;;
76423;SDS011;65257;52.104;4.268;2023-03-19T12:57:58;67.40;;;13.25;;
76423;SDS011;65257;52.104;4.268;2023-03-19T13:03:28;53.75;;;12.00;;
76423;SDS011;65257;52.104;4.268;2023-03-19T13:06:09;58.35;;;12.63;;
76423;SDS011;65257;52.104;4.268;2023-03-19T13:14:25;56.72;;;11.35;;
76423;SDS011;65257;52.104;4.268;2023-03-19T13:24:46;48.17;;;12.05;;
76423;SDS011;65257;52.104;4.268;2023-03-19T13:27:23;35.20;;;10.98;;
76423;SDS011;65257;52.104;4.268;2023-03-19T13:32:50;25.73;;;9.57;;
76423;SDS011;65257;52.104;4.268;2023-03-19T13:40:59;30.85;;;9.63;;
76423;SDS011;65257;52.104;4.268;2023-03-19T13:48:50;30.00;;;12.15;;
76423;SDS011;65257;52.104;4.268;2023-03-19T13:59:26;32.30;;;9.55;;
76423;SDS011;65257;52.104;4.268;2023-03-19T14:01:57;31.05;;;9.30;;
76423;SDS011;65257;52.104;4.268;2023-03-19T14:04:28;32.17;;;9.93;;
76423;SDS011;65257;52.104;4.268;2023-03-19T14:09:50;35.72;;;9.35;;
76423;SDS011;65257;52.104;4.268;2023-03-19T14:12:37;34.85;;;10.20;;
76423;SDS011;65257;52.104;4.268;2023-03-19T14:22:54;30.17;;;10.23;;
76423;SDS011;65257;52.104;4.268;2023-03-19T14:25:27;42.05;;;11.63;;
76423;SDS011;65257;52.104;4.268;2023-03-19T14:28:31;36.95;;;11.48;;
76423;SDS011;65257;52.104;4.268;2023-03-19T14:31:04;39.08;;;11.82;;
76423;SDS011;65257;52.104;4.268;2023-03-19T14:33:42;37.75;;;11.85;;
76423;SDS011;65257;52.104;4.268;2023-03-19T14:36:17;32.08;;;10.63;;
76423;SDS011;65257;52.104;4.268;2023-03-19T14:38:53;27.77;;;9.82;;
76423;SDS011;65257;52.104;4.268;2023-03-19T14:41:24;37.47;;;11.10;;
76423;SDS011;65257;52.104;4.268;2023-03-19T14:46:20;26.65;;;9.27;;
76423;SDS011;65257;52.104;4.268;2023-03-19T14:55:16;34.95;;;11.38;;
76423;SDS011;65257;52.104;4.268;2023-03-19T14:57:44;35.53;;;12.23;;
76423;SDS011;65257;52.104;4.268;2023-03-19T15:00:13;34.67;;;11.57;;
76423;SDS011;65257;52.104;4.268;2023-03-19T15:02:50;42.33;;;12.68;;
76423;SDS011;65257;52.104;4.268;2023-03-19T15:05:21;41.78;;;11.70;;
76423;SDS011;65257;52.104;4.268;2023-03-19T15:07:54;40.20;;;11.77;;
76423;SDS011;65257;52.104;4.268;2023-03-19T15:10:28;32.58;;;10.90;;
76423;SDS011;65257;52.104;4.268;2023-03-19T15:18:39;30.42;;;10.70;;
76423;SDS011;65257;52.104;4.268;2023-03-19T15:21:05;34.88;;;11.27;;
76423;SDS011;65257;52.104;4.268;2023-03-19T15:23:34;33.05;;;11.50;;
76423;SDS011;65257;52.104;4.268;2023-03-19T15:26:02;40.92;;;13.45;;
76423;SDS011;65257;52.104;4.268;2023-03-19T15:28:50;36.00;;;10.98;;
76423;SDS011;65257;52.104;4.268;2023-03-19T15:31:17;31.65;;;12.18;;
76423;SDS011;65257;52.104;4.268;2023-03-19T15:33:43;36.17;;;10.80;;
76423;SDS011;65257;52.104;4.268;2023-03-19T15:36:29;37.10;;;11.00;;
76423;SDS011;65257;52.104;4.268;2023-03-19T15:46:32;28.17;;;10.07;;
76423;SDS011;65257;52.104;4.268;2023-03-19T15:49:05;32.47;;;10.55;;
76423;SDS011;65257;52.104;4.268;2023-03-19T15:51:40;31.83;;;10.10;;
76423;SDS011;65257;52.104;4.268;2023-03-19T15:54:09;35.33;;;11.25;;
76423;SDS011;65257;52.104;4.268;2023-03-19T15:56:34;32.70;;;10.73;;
76423;SDS011;65257;52.104;4.268;2023-03-19T15:59:00;33.05;;;9.98;;
76423;SDS011;65257;52.104;4.268;2023-03-19T16:01:31;31.27;;;9.77;;
76423;SDS011;65257;52.104;4.268;2023-03-19T16:06:30;38.17;;;10.18;;
76423;SDS011;65257;52.104;4.268;2023-03-19T16:09:25;24.77;;;8.57;;
76423;SDS011;65257;52.104;4.268;2023-03-19T16:11:51;24.52;;;8.15;;
76423;SDS011;65257;52.104;4.268;2023-03-19T16:17:14;29.92;;;9.07;;
76423;SDS011;65257;52.104;4.268;2023-03-19T16:19:53;29.00;;;8.45;;
76423;SDS011;65257;52.104;4.268;2023-03-19T16:22:26;23.52;;;6.70;;
76423;SDS011;65257;52.104;4.268;2023-03-19T16:24:54;19.02;;;7.15;;
76423;SDS011;65257;52.104;4.268;2023-03-19T16:27:24;28.67;;;7.13;;
76423;SDS011;65257;52.104;4.268;2023-03-19T16:30:00;18.20;;;4.93;;
76423;SDS011;65257;52.104;4.268;2023-03-19T16:32:31;27.92;;;6.65;;
76423;SDS011;65257;52.104;4.268;2023-03-19T16:35:04;21.80;;;6.18;;
76423;SDS011;65257;52.104;4.268;2023-03-19T16:37:42;21.27;;;5.75;;
76423;SDS011;65257;52.104;4.268;2023-03-19T16:42:39;18.98;;;4.95;;
76423;SDS011;65257;52.104;4.268;2023-03-19T16:45:19;17.60;;;5.28;;
76423;SDS011;65257;52.104;4.268;2023-03-19T16:47:57;23.23;;;4.80;;
76423;SDS011;65257;52.104;4.268;2023-03-19T16:50:28;32.45;;;5.75;;
76423;SDS011;65257;52.104;4.268;2023-03-19T16:52:54;23.40;;;4.32;;
76423;SDS011;65257;52.104;4.268;2023-03-19T16:58:25;16.00;;;3.42;;
76423;SDS011;65257;52.104;4.268;2023-03-19T17:01:03;21.10;;;3.33;;
76423;SDS011;65257;52.104;4.268;2023-03-19T17:03:35;12.00;;;2.72;;
76423;SDS011;65257;52.104;4.268;2023-03-19T17:06:01;10.57;;;3.10;;
76423;SDS011;65257;52.104;4.268;2023-03-19T17:08:29;16.63;;;2.88;;
76423;SDS011;65257;52.104;4.268;2023-03-19T17:10:56;13.05;;;3.85;;
76423;SDS011;65257;52.104;4.268;2023-03-19T17:13:29;10.68;;;3.42;;
76423;SDS011;65257;52.104;4.268;2023-03-19T17:16:06;14.23;;;2.88;;
76423;SDS011;65257;52.104;4.268;2023-03-19T17:18:35;5.75;;;2.40;;
76423;SDS011;65257;52.104;4.268;2023-03-19T17:21:06;10.85;;;2.92;;
76423;SDS011;65257;52.104;4.268;2023-03-19T17:23:41;16.02;;;4.20;;
76423;SDS011;65257;52.104;4.268;2023-03-19T17:26:15;13.77;;;3.40;;
76423;SDS011;65257;52.104;4.268;2023-03-19T17:28:49;11.27;;;3.22;;
76423;SDS011;65257;52.104;4.268;2023-03-19T17:31:19;14.70;;;4.28;;